Terminal Aerodrome Forecast
Issued by NWS Boise, ID

Home | Current Version | Previous Version | Text Only | Print | Product List | Glossary On
Versions: 1 2 3 4 5 6 7 8 9 10 11 12 13 14
000
FTUS45 KBOI 261127
TAFBOI
TAF
KBOI 261127Z 2612/2712 VRB03KT P6SM SCT100
     FM261600 31012KT P6SM FEW100
     FM270300 29006KT P6SM SCT250=

USA.gov is the U.S. government's official web portal to all federal, state and local government web resources and services.